Terminal Aerodrome Forecast
Issued by NWS

Home | Current Version | Previous Version | Text Only | Print | Product List | Glossary On
Versions: 1 2 3 4 5 6 7 8 9 10 11 12
000
FTUS43 KICT 081722
TAFCNU
TAF
KCNU 081722Z 0818/0918 21010KT P6SM SCT080
     FM082100 26010KT P6SM SCT110
     FM090100 28004KT P6SM SCT110
     FM091200 33008KT P6SM FEW250
     FM091500 34011G19KT P6SM FEW200=

USA.gov is the U.S. government's official web portal to all federal, state and local government web resources and services.